sensor_id;sensor_type;location;lat;lon;timestamp;P1;durP1;ratioP1;P2;durP2;ratioP2
3767;SDS011;1899;49.966;7.106;2022-10-13T04:02:53;18.98;;;12.77;;
3767;SDS011;1899;49.966;7.106;2022-10-13T04:05:19;16.00;;;11.90;;
3767;SDS011;1899;49.966;7.106;2022-10-13T04:07:44;16.00;;;12.00;;
3767;SDS011;1899;49.966;7.106;2022-10-13T04:10:09;15.47;;;11.50;;
3767;SDS011;1899;49.966;7.106;2022-10-13T04:12:34;14.13;;;11.63;;
3767;SDS011;1899;49.966;7.106;2022-10-13T04:15:00;17.87;;;12.10;;
3767;SDS011;1899;49.966;7.106;2022-10-13T04:17:25;16.10;;;11.47;;
3767;SDS011;1899;49.966;7.106;2022-10-13T04:19:50;15.53;;;11.73;;
3767;SDS011;1899;49.966;7.106;2022-10-13T04:22:15;14.93;;;10.80;;
3767;SDS011;1899;49.966;7.106;2022-10-13T04:24:41;16.70;;;11.67;;
3767;SDS011;1899;49.966;7.106;2022-10-13T04:27:06;19.63;;;12.50;;
3767;SDS011;1899;49.966;7.106;2022-10-13T04:29:31;15.80;;;11.73;;
3767;SDS011;1899;49.966;7.106;2022-10-13T04:31:58;17.67;;;12.50;;
3767;SDS011;1899;49.966;7.106;2022-10-13T04:34:23;23.05;;;13.35;;
3767;SDS011;1899;49.966;7.106;2022-10-13T04:36:48;19.90;;;13.00;;
3767;SDS011;1899;49.966;7.106;2022-10-13T04:39:14;19.88;;;13.70;;
3767;SDS011;1899;49.966;7.106;2022-10-13T04:41:39;20.07;;;13.70;;
3767;SDS011;1899;49.966;7.106;2022-10-13T04:44:04;17.40;;;12.50;;
3767;SDS011;1899;49.966;7.106;2022-10-13T04:46:30;20.77;;;13.20;;
3767;SDS011;1899;49.966;7.106;2022-10-13T04:48:55;20.70;;;12.83;;
3767;SDS011;1899;49.966;7.106;2022-10-13T04:51:21;22.40;;;13.47;;
3767;SDS011;1899;49.966;7.106;2022-10-13T04:53:47;24.58;;;14.75;;
3767;SDS011;1899;49.966;7.106;2022-10-13T04:56:13;23.23;;;14.07;;
3767;SDS011;1899;49.966;7.106;2022-10-13T04:58:39;19.48;;;13.50;;
3767;SDS011;1899;49.966;7.106;2022-10-13T05:01:05;21.73;;;13.60;;
3767;SDS011;1899;49.966;7.106;2022-10-13T05:03:31;20.92;;;14.30;;
3767;SDS011;1899;49.966;7.106;2022-10-13T05:05:56;20.73;;;13.90;;
3767;SDS011;1899;49.966;7.106;2022-10-13T05:08:21;22.40;;;14.20;;
3767;SDS011;1899;49.966;7.106;2022-10-13T05:10:57;24.07;;;14.93;;
3767;SDS011;1899;49.966;7.106;2022-10-13T05:13:23;20.73;;;13.35;;
3767;SDS011;1899;49.966;7.106;2022-10-13T05:15:48;21.95;;;14.40;;
3767;SDS011;1899;49.966;7.106;2022-10-13T05:18:14;19.93;;;14.27;;
3767;SDS011;1899;49.966;7.106;2022-10-13T05:20:39;20.10;;;13.20;;
3767;SDS011;1899;49.966;7.106;2022-10-13T05:23:04;19.10;;;13.70;;
3767;SDS011;1899;49.966;7.106;2022-10-13T05:25:30;17.03;;;13.03;;
3767;SDS011;1899;49.966;7.106;2022-10-13T05:27:55;23.52;;;15.13;;
3767;SDS011;1899;49.966;7.106;2022-10-13T05:30:20;19.97;;;13.53;;
3767;SDS011;1899;49.966;7.106;2022-10-13T05:32:45;19.83;;;13.63;;
3767;SDS011;1899;49.966;7.106;2022-10-13T05:35:11;19.70;;;13.23;;
3767;SDS011;1899;49.966;7.106;2022-10-13T05:37:36;19.00;;;13.60;;
3767;SDS011;1899;49.966;7.106;2022-10-13T05:40:01;21.93;;;13.80;;
3767;SDS011;1899;49.966;7.106;2022-10-13T05:42:27;19.57;;;13.80;;
3767;SDS011;1899;49.966;7.106;2022-10-13T05:44:52;18.47;;;12.80;;
3767;SDS011;1899;49.966;7.106;2022-10-13T05:47:18;16.93;;;12.73;;
3767;SDS011;1899;49.966;7.106;2022-10-13T05:49:43;18.13;;;12.70;;
3767;SDS011;1899;49.966;7.106;2022-10-13T05:52:09;16.67;;;12.10;;
3767;SDS011;1899;49.966;7.106;2022-10-13T05:54:40;16.88;;;13.00;;
3767;SDS011;1899;49.966;7.106;2022-10-13T05:57:27;17.13;;;13.00;;
3767;SDS011;1899;49.966;7.106;2022-10-13T05:59:56;22.33;;;14.27;;
3767;SDS011;1899;49.966;7.106;2022-10-13T06:02:23;21.50;;;14.20;;
3767;SDS011;1899;49.966;7.106;2022-10-13T06:04:51;15.25;;;11.70;;
3767;SDS011;1899;49.966;7.106;2022-10-13T06:07:17;21.63;;;12.70;;
3767;SDS011;1899;49.966;7.106;2022-10-13T06:09:42;15.38;;;12.10;;
3767;SDS011;1899;49.966;7.106;2022-10-13T06:12:07;15.60;;;11.27;;
3767;SDS011;1899;49.966;7.106;2022-10-13T06:14:33;17.30;;;13.10;;
3767;SDS011;1899;49.966;7.106;2022-10-13T06:16:59;15.60;;;12.63;;
3767;SDS011;1899;49.966;7.106;2022-10-13T06:19:24;15.13;;;11.90;;
3767;SDS011;1899;49.966;7.106;2022-10-13T06:21:49;15.33;;;11.60;;
3767;SDS011;1899;49.966;7.106;2022-10-13T06:24:14;15.57;;;11.73;;
3767;SDS011;1899;49.966;7.106;2022-10-13T06:26:40;16.58;;;12.15;;
3767;SDS011;1899;49.966;7.106;2022-10-13T06:29:05;15.07;;;11.60;;
3767;SDS011;1899;49.966;7.106;2022-10-13T06:31:30;13.80;;;11.20;;
3767;SDS011;1899;49.966;7.106;2022-10-13T06:33:56;14.93;;;11.30;;
3767;SDS011;1899;49.966;7.106;2022-10-13T06:36:21;20.70;;;13.70;;
3767;SDS011;1899;49.966;7.106;2022-10-13T06:38:47;17.20;;;11.80;;
3767;SDS011;1899;49.966;7.106;2022-10-13T06:41:12;16.33;;;11.73;;
3767;SDS011;1899;49.966;7.106;2022-10-13T06:43:38;17.00;;;11.52;;
3767;SDS011;1899;49.966;7.106;2022-10-13T06:46:03;13.13;;;10.40;;
3767;SDS011;1899;49.966;7.106;2022-10-13T06:48:29;13.77;;;10.80;;
3767;SDS011;1899;49.966;7.106;2022-10-13T06:50:54;15.17;;;10.87;;
3767;SDS011;1899;49.966;7.106;2022-10-13T06:53:20;15.10;;;11.47;;
3767;SDS011;1899;49.966;7.106;2022-10-13T06:55:45;15.47;;;11.43;;
3767;SDS011;1899;49.966;7.106;2022-10-13T06:58:10;11.82;;;10.02;;
3767;SDS011;1899;49.966;7.106;2022-10-13T07:00:36;11.80;;;9.97;;
3767;SDS011;1899;49.966;7.106;2022-10-13T07:03:03;14.27;;;10.93;;
3767;SDS011;1899;49.966;7.106;2022-10-13T07:05:29;13.77;;;10.23;;
3767;SDS011;1899;49.966;7.106;2022-10-13T07:07:55;15.23;;;11.10;;
3767;SDS011;1899;49.966;7.106;2022-10-13T07:10:20;15.40;;;11.20;;
3767;SDS011;1899;49.966;7.106;2022-10-13T07:12:45;15.20;;;11.35;;
3767;SDS011;1899;49.966;7.106;2022-10-13T07:15:11;14.90;;;10.67;;
3767;SDS011;1899;49.966;7.106;2022-10-13T07:17:36;12.83;;;10.03;;
3767;SDS011;1899;49.966;7.106;2022-10-13T07:20:02;14.10;;;10.27;;
3767;SDS011;1899;49.966;7.106;2022-10-13T07:22:28;13.50;;;11.67;;
3767;SDS011;1899;49.966;7.106;2022-10-13T07:24:54;12.80;;;10.50;;
3767;SDS011;1899;49.966;7.106;2022-10-13T07:27:19;11.33;;;9.80;;
3767;SDS011;1899;49.966;7.106;2022-10-13T07:29:44;11.80;;;9.30;;
3767;SDS011;1899;49.966;7.106;2022-10-13T07:32:09;9.37;;;8.30;;
3767;SDS011;1899;49.966;7.106;2022-10-13T07:34:35;9.80;;;8.70;;
3767;SDS011;1899;49.966;7.106;2022-10-13T07:37:00;10.80;;;8.83;;
3767;SDS011;1899;49.966;7.106;2022-10-13T07:39:25;10.73;;;9.40;;
3767;SDS011;1899;49.966;7.106;2022-10-13T07:41:50;12.43;;;10.37;;
3767;SDS011;1899;49.966;7.106;2022-10-13T07:44:16;11.00;;;8.83;;
3767;SDS011;1899;49.966;7.106;2022-10-13T07:46:41;10.97;;;9.47;;
3767;SDS011;1899;49.966;7.106;2022-10-13T07:49:06;11.20;;;9.00;;
3767;SDS011;1899;49.966;7.106;2022-10-13T07:51:31;10.20;;;8.40;;
3767;SDS011;1899;49.966;7.106;2022-10-13T07:53:56;11.57;;;9.03;;
3767;SDS011;1899;49.966;7.106;2022-10-13T07:56:22;10.60;;;9.13;;
3767;SDS011;1899;49.966;7.106;2022-10-13T07:58:47;11.40;;;8.60;;
3767;SDS011;1899;49.966;7.106;2022-10-13T08:01:13;14.13;;;9.47;;
3767;SDS011;1899;49.966;7.106;2022-10-13T08:03:39;11.98;;;9.93;;
3767;SDS011;1899;49.966;7.106;2022-10-13T08:06:05;14.45;;;11.05;;
3767;SDS011;1899;49.966;7.106;2022-10-13T08:08:30;14.93;;;12.20;;
3767;SDS011;1899;49.966;7.106;2022-10-13T08:11:02;15.87;;;12.30;;
3767;SDS011;1899;49.966;7.106;2022-10-13T08:13:28;16.10;;;12.35;;
3767;SDS011;1899;49.966;7.106;2022-10-13T08:15:53;14.50;;;11.87;;
3767;SDS011;1899;49.966;7.106;2022-10-13T08:18:18;14.70;;;11.40;;
3767;SDS011;1899;49.966;7.106;2022-10-13T08:20:44;12.43;;;10.70;;
3767;SDS011;1899;49.966;7.106;2022-10-13T08:23:10;12.30;;;10.00;;
3767;SDS011;1899;49.966;7.106;2022-10-13T08:25:36;14.17;;;9.40;;
3767;SDS011;1899;49.966;7.106;2022-10-13T08:28:02;12.23;;;9.85;;
3767;SDS011;1899;49.966;7.106;2022-10-13T08:30:28;13.10;;;10.17;;
3767;SDS011;1899;49.966;7.106;2022-10-13T08:32:53;12.00;;;10.60;;
3767;SDS011;1899;49.966;7.106;2022-10-13T08:35:18;11.53;;;10.33;;
3767;SDS011;1899;49.966;7.106;2022-10-13T08:37:43;13.47;;;10.80;;
3767;SDS011;1899;49.966;7.106;2022-10-13T08:40:11;12.93;;;10.57;;
3767;SDS011;1899;49.966;7.106;2022-10-13T08:42:40;12.63;;;9.80;;
3767;SDS011;1899;49.966;7.106;2022-10-13T08:45:07;13.68;;;9.90;;
3767;SDS011;1899;49.966;7.106;2022-10-13T08:49:59;12.47;;;10.70;;
3767;SDS011;1899;49.966;7.106;2022-10-13T08:52:25;16.63;;;11.03;;
3767;SDS011;1899;49.966;7.106;2022-10-13T08:54:51;14.07;;;11.68;;
3767;SDS011;1899;49.966;7.106;2022-10-13T08:57:17;14.75;;;12.27;;
3767;SDS011;1899;49.966;7.106;2022-10-13T08:59:42;14.33;;;10.60;;
3767;SDS011;1899;49.966;7.106;2022-10-13T09:02:12;13.77;;;11.20;;
3767;SDS011;1899;49.966;7.106;2022-10-13T09:04:39;12.15;;;10.85;;
3767;SDS011;1899;49.966;7.106;2022-10-13T09:09:34;14.63;;;10.97;;
3767;SDS011;1899;49.966;7.106;2022-10-13T09:11:59;15.20;;;10.60;;
3767;SDS011;1899;49.966;7.106;2022-10-13T09:14:26;14.43;;;11.37;;
3767;SDS011;1899;49.966;7.106;2022-10-13T09:16:52;15.00;;;11.20;;
3767;SDS011;1899;49.966;7.106;2022-10-13T09:21:53;14.00;;;11.10;;
3767;SDS011;1899;49.966;7.106;2022-10-13T09:24:19;11.70;;;10.50;;
3767;SDS011;1899;49.966;7.106;2022-10-13T09:26:45;11.48;;;10.13;;
3767;SDS011;1899;49.966;7.106;2022-10-13T09:29:16;11.40;;;10.20;;
3767;SDS011;1899;49.966;7.106;2022-10-13T09:31:41;13.23;;;11.07;;
3767;SDS011;1899;49.966;7.106;2022-10-13T09:37:00;12.93;;;11.52;;
3767;SDS011;1899;49.966;7.106;2022-10-13T09:39:26;15.17;;;11.90;;
3767;SDS011;1899;49.966;7.106;2022-10-13T09:41:52;14.18;;;12.40;;
3767;SDS011;1899;49.966;7.106;2022-10-13T09:44:32;14.98;;;11.77;;
3767;SDS011;1899;49.966;7.106;2022-10-13T09:46:58;14.57;;;12.40;;
3767;SDS011;1899;49.966;7.106;2022-10-13T09:49:37;13.32;;;11.93;;
3767;SDS011;1899;49.966;7.106;2022-10-13T09:52:04;13.85;;;11.18;;
3767;SDS011;1899;49.966;7.106;2022-10-13T09:57:08;12.15;;;10.63;;
3767;SDS011;1899;49.966;7.106;2022-10-13T09:59:36;13.13;;;10.70;;
3767;SDS011;1899;49.966;7.106;2022-10-13T10:02:14;14.65;;;11.00;;
3767;SDS011;1899;49.966;7.106;2022-10-13T10:04:41;11.60;;;10.32;;
3767;SDS011;1899;49.966;7.106;2022-10-13T10:07:11;11.45;;;10.20;;
3767;SDS011;1899;49.966;7.106;2022-10-13T10:09:43;11.70;;;9.70;;
3767;SDS011;1899;49.966;7.106;2022-10-13T10:12:12;12.00;;;9.48;;
3767;SDS011;1899;49.966;7.106;2022-10-13T10:14:38;11.35;;;9.80;;
3767;SDS011;1899;49.966;7.106;2022-10-13T10:19:40;11.27;;;10.07;;
3767;SDS011;1899;49.966;7.106;2022-10-13T10:24:54;11.38;;;10.00;;
3767;SDS011;1899;49.966;7.106;2022-10-13T10:27:23;12.23;;;9.95;;
3767;SDS011;1899;49.966;7.106;2022-10-13T10:29:51;12.50;;;10.10;;
3767;SDS011;1899;49.966;7.106;2022-10-13T10:32:20;10.80;;;9.70;;
3767;SDS011;1899;49.966;7.106;2022-10-13T10:34:56;12.63;;;9.73;;
3767;SDS011;1899;49.966;7.106;2022-10-13T10:39:55;12.40;;;9.33;;
3767;SDS011;1899;49.966;7.106;2022-10-13T10:44:59;10.85;;;9.75;;
3767;SDS011;1899;49.966;7.106;2022-10-13T10:47:26;10.75;;;9.57;;
3767;SDS011;1899;49.966;7.106;2022-10-13T10:49:53;10.90;;;9.68;;
3767;SDS011;1899;49.966;7.106;2022-10-13T10:52:23;10.68;;;9.43;;
3767;SDS011;1899;49.966;7.106;2022-10-13T11:00:19;11.80;;;10.50;;
3767;SDS011;1899;49.966;7.106;2022-10-13T11:05:11;11.00;;;9.90;;
3767;SDS011;1899;49.966;7.106;2022-10-13T11:17:48;13.75;;;11.38;;
3767;SDS011;1899;49.966;7.106;2022-10-13T11:27:59;12.55;;;10.02;;
3767;SDS011;1899;49.966;7.106;2022-10-13T11:38:47;12.45;;;10.85;;
3767;SDS011;1899;49.966;7.106;2022-10-13T11:41:16;15.05;;;11.13;;
3767;SDS011;1899;49.966;7.106;2022-10-13T11:43:50;12.40;;;10.73;;
3767;SDS011;1899;49.966;7.106;2022-10-13T11:51:30;14.30;;;10.85;;
3767;SDS011;1899;49.966;7.106;2022-10-13T11:54:04;12.80;;;10.32;;
3767;SDS011;1899;49.966;7.106;2022-10-13T11:56:32;11.20;;;9.23;;
3767;SDS011;1899;49.966;7.106;2022-10-13T11:58:58;12.93;;;10.20;;
3767;SDS011;1899;49.966;7.106;2022-10-13T12:01:23;11.20;;;9.47;;
3767;SDS011;1899;49.966;7.106;2022-10-13T12:03:48;9.50;;;8.50;;
3767;SDS011;1899;49.966;7.106;2022-10-13T12:06:28;9.97;;;8.23;;
3767;SDS011;1899;49.966;7.106;2022-10-13T12:09:03;10.88;;;8.70;;
3767;SDS011;1899;49.966;7.106;2022-10-13T12:11:32;11.10;;;8.25;;
3767;SDS011;1899;49.966;7.106;2022-10-13T12:14:00;11.65;;;8.18;;
3767;SDS011;1899;49.966;7.106;2022-10-13T12:16:26;11.40;;;8.27;;
3767;SDS011;1899;49.966;7.106;2022-10-13T12:18:51;9.15;;;8.25;;
3767;SDS011;1899;49.966;7.106;2022-10-13T12:21:18;13.27;;;9.40;;
3767;SDS011;1899;49.966;7.106;2022-10-13T12:23:44;10.73;;;8.48;;
3767;SDS011;1899;49.966;7.106;2022-10-13T12:26:20;12.23;;;8.95;;
3767;SDS011;1899;49.966;7.106;2022-10-13T12:28:56;12.13;;;8.90;;
3767;SDS011;1899;49.966;7.106;2022-10-13T12:31:23;10.23;;;8.47;;
3767;SDS011;1899;49.966;7.106;2022-10-13T12:33:55;12.18;;;9.07;;
3767;SDS011;1899;49.966;7.106;2022-10-13T12:36:31;11.35;;;8.68;;
3767;SDS011;1899;49.966;7.106;2022-10-13T12:39:06;10.90;;;8.50;;
3767;SDS011;1899;49.966;7.106;2022-10-13T12:41:34;9.68;;;8.20;;
3767;SDS011;1899;49.966;7.106;2022-10-13T12:43:59;9.20;;;7.55;;
3767;SDS011;1899;49.966;7.106;2022-10-13T12:49:06;10.35;;;8.10;;
3767;SDS011;1899;49.966;7.106;2022-10-13T12:51:32;11.25;;;8.40;;
3767;SDS011;1899;49.966;7.106;2022-10-13T12:53:59;8.93;;;7.80;;
3767;SDS011;1899;49.966;7.106;2022-10-13T12:56:30;10.57;;;8.00;;
3767;SDS011;1899;49.966;7.106;2022-10-13T12:58:56;13.20;;;8.25;;
3767;SDS011;1899;49.966;7.106;2022-10-13T13:01:26;12.60;;;8.32;;
3767;SDS011;1899;49.966;7.106;2022-10-13T13:03:56;10.57;;;8.00;;
3767;SDS011;1899;49.966;7.106;2022-10-13T13:06:24;11.93;;;8.45;;
3767;SDS011;1899;49.966;7.106;2022-10-13T13:14:53;12.30;;;9.45;;
3767;SDS011;1899;49.966;7.106;2022-10-13T13:19:45;13.43;;;10.77;;
3767;SDS011;1899;49.966;7.106;2022-10-13T13:22:11;15.70;;;12.80;;
3767;SDS011;1899;49.966;7.106;2022-10-13T13:24:36;17.23;;;12.33;;
3767;SDS011;1899;49.966;7.106;2022-10-13T13:29:36;15.70;;;11.30;;
3767;SDS011;1899;49.966;7.106;2022-10-13T13:32:01;15.73;;;11.60;;
3767;SDS011;1899;49.966;7.106;2022-10-13T13:34:27;16.67;;;13.07;;
3767;SDS011;1899;49.966;7.106;2022-10-13T13:36:52;14.80;;;12.77;;
3767;SDS011;1899;49.966;7.106;2022-10-13T13:39:17;15.33;;;12.30;;
3767;SDS011;1899;49.966;7.106;2022-10-13T13:41:50;14.75;;;11.60;;
3767;SDS011;1899;49.966;7.106;2022-10-13T13:44:15;14.50;;;10.97;;
3767;SDS011;1899;49.966;7.106;2022-10-13T13:46:40;11.93;;;9.70;;
3767;SDS011;1899;49.966;7.106;2022-10-13T13:49:06;10.85;;;9.75;;
3767;SDS011;1899;49.966;7.106;2022-10-13T13:51:31;11.23;;;9.20;;
3767;SDS011;1899;49.966;7.106;2022-10-13T13:53:56;10.15;;;8.20;;
3767;SDS011;1899;49.966;7.106;2022-10-13T13:56:22;9.93;;;8.40;;
3767;SDS011;1899;49.966;7.106;2022-10-13T13:58:47;10.70;;;8.17;;
3767;SDS011;1899;49.966;7.106;2022-10-13T14:01:12;9.53;;;8.00;;
3767;SDS011;1899;49.966;7.106;2022-10-13T14:03:38;11.20;;;9.50;;
3767;SDS011;1899;49.966;7.106;2022-10-13T14:06:04;9.90;;;8.47;;
3767;SDS011;1899;49.966;7.106;2022-10-13T14:08:30;10.63;;;8.35;;
3767;SDS011;1899;49.966;7.106;2022-10-13T14:10:55;14.00;;;8.98;;
3767;SDS011;1899;49.966;7.106;2022-10-13T14:13:20;10.53;;;8.53;;
3767;SDS011;1899;49.966;7.106;2022-10-13T14:15:54;13.13;;;10.27;;
3767;SDS011;1899;49.966;7.106;2022-10-13T14:18:20;10.07;;;8.90;;
3767;SDS011;1899;49.966;7.106;2022-10-13T14:20:45;16.00;;;10.23;;
3767;SDS011;1899;49.966;7.106;2022-10-13T14:23:10;17.00;;;10.70;;
3767;SDS011;1899;49.966;7.106;2022-10-13T14:25:36;12.40;;;10.60;;
3767;SDS011;1899;49.966;7.106;2022-10-13T14:28:01;14.30;;;11.10;;
3767;SDS011;1899;49.966;7.106;2022-10-13T14:30:27;14.97;;;11.03;;
3767;SDS011;1899;49.966;7.106;2022-10-13T14:32:52;12.10;;;10.90;;
3767;SDS011;1899;49.966;7.106;2022-10-13T14:35:17;13.17;;;10.80;;
3767;SDS011;1899;49.966;7.106;2022-10-13T14:37:42;12.77;;;10.17;;
3767;SDS011;1899;49.966;7.106;2022-10-13T14:40:08;13.50;;;11.07;;
3767;SDS011;1899;49.966;7.106;2022-10-13T14:42:33;11.82;;;10.60;;
3767;SDS011;1899;49.966;7.106;2022-10-13T14:44:59;14.13;;;11.70;;
3767;SDS011;1899;49.966;7.106;2022-10-13T14:47:24;13.60;;;11.27;;
3767;SDS011;1899;49.966;7.106;2022-10-13T14:49:49;18.10;;;12.30;;
3767;SDS011;1899;49.966;7.106;2022-10-13T14:52:14;15.35;;;12.75;;
3767;SDS011;1899;49.966;7.106;2022-10-13T14:54:40;15.07;;;12.00;;
3767;SDS011;1899;49.966;7.106;2022-10-13T14:57:05;15.33;;;12.83;;
3767;SDS011;1899;49.966;7.106;2022-10-13T14:59:32;17.27;;;13.00;;
3767;SDS011;1899;49.966;7.106;2022-10-13T15:01:57;16.30;;;11.90;;
3767;SDS011;1899;49.966;7.106;2022-10-13T15:04:22;14.93;;;11.67;;
3767;SDS011;1899;49.966;7.106;2022-10-13T15:06:48;17.10;;;12.90;;
3767;SDS011;1899;49.966;7.106;2022-10-13T15:09:13;16.37;;;13.17;;
3767;SDS011;1899;49.966;7.106;2022-10-13T15:11:38;17.20;;;12.48;;
3767;SDS011;1899;49.966;7.106;2022-10-13T15:14:03;13.00;;;10.93;;
3767;SDS011;1899;49.966;7.106;2022-10-13T15:16:29;15.73;;;12.30;;
3767;SDS011;1899;49.966;7.106;2022-10-13T15:18:56;15.57;;;13.25;;
3767;SDS011;1899;49.966;7.106;2022-10-13T15:21:22;14.70;;;13.10;;
3767;SDS011;1899;49.966;7.106;2022-10-13T15:23:47;14.10;;;12.10;;
3767;SDS011;1899;49.966;7.106;2022-10-13T15:26:13;13.80;;;11.17;;
3767;SDS011;1899;49.966;7.106;2022-10-13T15:28:40;12.88;;;11.13;;
3767;SDS011;1899;49.966;7.106;2022-10-13T15:31:05;13.65;;;12.02;;
3767;SDS011;1899;49.966;7.106;2022-10-13T15:33:31;13.03;;;11.73;;
3767;SDS011;1899;49.966;7.106;2022-10-13T15:35:56;14.00;;;12.00;;
3767;SDS011;1899;49.966;7.106;2022-10-13T15:38:21;16.93;;;13.13;;
3767;SDS011;1899;49.966;7.106;2022-10-13T15:40:47;13.48;;;12.07;;
3767;SDS011;1899;49.966;7.106;2022-10-13T15:43:12;15.80;;;13.18;;
3767;SDS011;1899;49.966;7.106;2022-10-13T15:45:38;16.00;;;12.40;;
3767;SDS011;1899;49.966;7.106;2022-10-13T15:48:06;15.07;;;13.47;;
3767;SDS011;1899;49.966;7.106;2022-10-13T15:50:32;17.70;;;13.43;;
3767;SDS011;1899;49.966;7.106;2022-10-13T15:52:57;17.60;;;14.13;;
3767;SDS011;1899;49.966;7.106;2022-10-13T15:55:23;14.60;;;12.50;;
3767;SDS011;1899;49.966;7.106;2022-10-13T15:57:48;17.97;;;14.90;;
3767;SDS011;1899;49.966;7.106;2022-10-13T16:00:14;18.27;;;14.63;;
3767;SDS011;1899;49.966;7.106;2022-10-13T16:02:40;17.23;;;13.40;;
3767;SDS011;1899;49.966;7.106;2022-10-13T16:05:06;18.33;;;14.25;;
3767;SDS011;1899;49.966;7.106;2022-10-13T16:07:32;19.33;;;14.23;;
3767;SDS011;1899;49.966;7.106;2022-10-13T16:09:57;19.55;;;14.10;;
3767;SDS011;1899;49.966;7.106;2022-10-13T16:12:23;19.43;;;13.53;;
3767;SDS011;1899;49.966;7.106;2022-10-13T16:14:49;17.47;;;13.70;;
3767;SDS011;1899;49.966;7.106;2022-10-13T16:17:14;16.65;;;12.98;;
3767;SDS011;1899;49.966;7.106;2022-10-13T16:19:39;17.80;;;14.77;;
3767;SDS011;1899;49.966;7.106;2022-10-13T16:22:05;16.40;;;13.57;;
3767;SDS011;1899;49.966;7.106;2022-10-13T16:24:30;16.27;;;13.97;;
3767;SDS011;1899;49.966;7.106;2022-10-13T16:26:55;15.93;;;14.05;;
3767;SDS011;1899;49.966;7.106;2022-10-13T16:29:21;20.80;;;16.90;;
3767;SDS011;1899;49.966;7.106;2022-10-13T16:31:46;25.10;;;19.57;;
3767;SDS011;1899;49.966;7.106;2022-10-13T16:34:11;19.90;;;17.30;;
3767;SDS011;1899;49.966;7.106;2022-10-13T16:36:36;19.30;;;16.03;;
3767;SDS011;1899;49.966;7.106;2022-10-13T16:39:02;19.10;;;15.93;;
3767;SDS011;1899;49.966;7.106;2022-10-13T16:41:27;19.43;;;16.00;;
3767;SDS011;1899;49.966;7.106;2022-10-13T16:43:52;19.03;;;15.53;;
3767;SDS011;1899;49.966;7.106;2022-10-13T16:46:18;19.73;;;16.73;;
3767;SDS011;1899;49.966;7.106;2022-10-13T16:48:44;16.35;;;14.65;;
3767;SDS011;1899;49.966;7.106;2022-10-13T16:51:11;14.05;;;12.10;;
3767;SDS011;1899;49.966;7.106;2022-10-13T16:53:37;15.88;;;12.73;;
3767;SDS011;1899;49.966;7.106;2022-10-13T16:56:03;16.37;;;11.87;;
3767;SDS011;1899;49.966;7.106;2022-10-13T16:58:28;14.38;;;10.00;;
3767;SDS011;1899;49.966;7.106;2022-10-13T17:01:00;12.60;;;10.10;;
3767;SDS011;1899;49.966;7.106;2022-10-13T17:03:25;9.10;;;6.55;;
3767;SDS011;1899;49.966;7.106;2022-10-13T17:05:51;8.20;;;6.97;;
3767;SDS011;1899;49.966;7.106;2022-10-13T17:08:17;11.82;;;9.13;;
3767;SDS011;1899;49.966;7.106;2022-10-13T17:10:42;12.47;;;9.67;;
3767;SDS011;1899;49.966;7.106;2022-10-13T17:13:07;12.70;;;9.50;;
3767;SDS011;1899;49.966;7.106;2022-10-13T17:15:32;9.50;;;8.53;;
3767;SDS011;1899;49.966;7.106;2022-10-13T17:17:58;12.70;;;8.80;;
3767;SDS011;1899;49.966;7.106;2022-10-13T17:20:23;13.50;;;10.47;;
3767;SDS011;1899;49.966;7.106;2022-10-13T17:22:48;13.67;;;11.53;;
3767;SDS011;1899;49.966;7.106;2022-10-13T17:25:13;12.80;;;9.80;;
3767;SDS011;1899;49.966;7.106;2022-10-13T17:27:39;12.70;;;10.37;;
3767;SDS011;1899;49.966;7.106;2022-10-13T17:30:04;14.07;;;10.90;;
3767;SDS011;1899;49.966;7.106;2022-10-13T17:32:30;14.33;;;10.90;;
3767;SDS011;1899;49.966;7.106;2022-10-13T17:34:55;17.03;;;12.47;;
3767;SDS011;1899;49.966;7.106;2022-10-13T17:37:21;14.85;;;12.18;;
3767;SDS011;1899;49.966;7.106;2022-10-13T17:39:46;14.67;;;12.50;;
3767;SDS011;1899;49.966;7.106;2022-10-13T17:42:11;17.37;;;12.70;;
3767;SDS011;1899;49.966;7.106;2022-10-13T17:44:36;14.47;;;10.90;;
3767;SDS011;1899;49.966;7.106;2022-10-13T17:47:02;13.03;;;11.00;;
3767;SDS011;1899;49.966;7.106;2022-10-13T17:49:27;15.33;;;13.70;;
3767;SDS011;1899;49.966;7.106;2022-10-13T17:51:53;17.83;;;13.77;;
3767;SDS011;1899;49.966;7.106;2022-10-13T17:54:18;18.50;;;12.95;;
3767;SDS011;1899;49.966;7.106;2022-10-13T17:56:44;18.88;;;15.60;;
3767;SDS011;1899;49.966;7.106;2022-10-13T17:59:10;16.52;;;13.73;;
3767;SDS011;1899;49.966;7.106;2022-10-13T18:01:35;12.17;;;10.50;;
3767;SDS011;1899;49.966;7.106;2022-10-13T18:04:02;17.80;;;14.13;;
3767;SDS011;1899;49.966;7.106;2022-10-13T18:06:28;17.97;;;13.00;;
3767;SDS011;1899;49.966;7.106;2022-10-13T18:08:54;15.40;;;11.80;;
3767;SDS011;1899;49.966;7.106;2022-10-13T18:11:20;15.63;;;12.53;;
3767;SDS011;1899;49.966;7.106;2022-10-13T18:13:46;17.80;;;13.63;;
3767;SDS011;1899;49.966;7.106;2022-10-13T18:16:13;22.37;;;16.37;;
3767;SDS011;1899;49.966;7.106;2022-10-13T18:18:39;21.50;;;16.23;;
3767;SDS011;1899;49.966;7.106;2022-10-13T18:21:04;29.10;;;19.50;;
3767;SDS011;1899;49.966;7.106;2022-10-13T18:23:32;26.23;;;17.38;;
3767;SDS011;1899;49.966;7.106;2022-10-13T18:26:01;32.75;;;20.85;;
3767;SDS011;1899;49.966;7.106;2022-10-13T18:28:27;27.48;;;19.55;;
3767;SDS011;1899;49.966;7.106;2022-10-13T18:30:53;19.00;;;15.60;;
3767;SDS011;1899;49.966;7.106;2022-10-13T18:33:18;18.07;;;14.40;;
3767;SDS011;1899;49.966;7.106;2022-10-13T18:35:43;19.90;;;13.80;;
3767;SDS011;1899;49.966;7.106;2022-10-13T18:38:08;19.10;;;15.60;;
3767;SDS011;1899;49.966;7.106;2022-10-13T18:40:33;18.20;;;15.30;;
3767;SDS011;1899;49.966;7.106;2022-10-13T18:42:59;19.87;;;14.70;;
3767;SDS011;1899;49.966;7.106;2022-10-13T18:45:24;24.75;;;17.95;;
3767;SDS011;1899;49.966;7.106;2022-10-13T18:47:49;19.07;;;15.70;;
3767;SDS011;1899;49.966;7.106;2022-10-13T18:50:15;20.67;;;16.95;;
3767;SDS011;1899;49.966;7.106;2022-10-13T18:52:40;19.63;;;15.17;;
3767;SDS011;1899;49.966;7.106;2022-10-13T18:55:06;19.17;;;15.80;;
3767;SDS011;1899;49.966;7.106;2022-10-13T18:57:31;23.90;;;19.98;;
3767;SDS011;1899;49.966;7.106;2022-10-13T18:59:56;30.53;;;21.17;;
3767;SDS011;1899;49.966;7.106;2022-10-13T19:02:22;20.80;;;17.77;;
3767;SDS011;1899;49.966;7.106;2022-10-13T19:04:47;20.10;;;15.77;;
3767;SDS011;1899;49.966;7.106;2022-10-13T19:07:12;20.63;;;17.30;;
3767;SDS011;1899;49.966;7.106;2022-10-13T19:09:37;25.73;;;19.73;;
3767;SDS011;1899;49.966;7.106;2022-10-13T19:12:03;21.87;;;16.73;;
3767;SDS011;1899;49.966;7.106;2022-10-13T19:14:28;18.17;;;14.77;;
3767;SDS011;1899;49.966;7.106;2022-10-13T19:16:54;19.33;;;15.95;;
3767;SDS011;1899;49.966;7.106;2022-10-13T19:19:19;18.93;;;16.53;;
3767;SDS011;1899;49.966;7.106;2022-10-13T19:21:44;20.67;;;15.60;;
3767;SDS011;1899;49.966;7.106;2022-10-13T19:24:10;23.30;;;16.70;;
3767;SDS011;1899;49.966;7.106;2022-10-13T19:26:35;21.08;;;15.40;;
3767;SDS011;1899;49.966;7.106;2022-10-13T19:29:05;22.67;;;16.55;;
3767;SDS011;1899;49.966;7.106;2022-10-13T19:31:31;21.57;;;16.80;;
3767;SDS011;1899;49.966;7.106;2022-10-13T19:33:56;22.98;;;15.18;;
3767;SDS011;1899;49.966;7.106;2022-10-13T19:36:29;21.43;;;16.17;;
3767;SDS011;1899;49.966;7.106;2022-10-13T19:38:55;18.20;;;14.27;;
3767;SDS011;1899;49.966;7.106;2022-10-13T19:41:21;18.35;;;13.95;;
3767;SDS011;1899;49.966;7.106;2022-10-13T19:43:46;16.13;;;13.30;;
3767;SDS011;1899;49.966;7.106;2022-10-13T19:46:11;13.93;;;11.10;;
3767;SDS011;1899;49.966;7.106;2022-10-13T19:48:37;18.33;;;14.00;;
3767;SDS011;1899;49.966;7.106;2022-10-13T19:51:05;19.60;;;14.30;;
3767;SDS011;1899;49.966;7.106;2022-10-13T19:53:31;17.95;;;13.65;;
3767;SDS011;1899;49.966;7.106;2022-10-13T19:55:56;16.60;;;14.73;;
3767;SDS011;1899;49.966;7.106;2022-10-13T19:58:22;25.90;;;16.40;;
